Aérodrome :
LOGIN :

S'inscrire | Disclaimer

   EN    FR    IT 

 










Légende :    VFR   VFR Marginal   IFR   IFR Intensif   IFR Très Intensif
Visi : 
Plafond : 
>= 8 km
>= 3000ft
5 à 8 km
1000 à 3000 ft
1500m à 5 km
500 à 1000 ft
800 à 1500m
200 à 500 ft
< 800m
< 200 ft
Symboles :   Orages  Brouillard  Fortes neiges  Fortes précipitations  Vent > 20 kt
SIGMETs :   Divers  Orages  Givrage  Turbulence  Onde Orograph.  Cendres Volcan.






- Altitude de l'aérodrome : 144 ft
- Code IATA : PGF


LFMP - Perpignan

DERNIER METAR :
  • 230230Z AUTO 08010KT 040V100 4800 +TSRA BR FEW007/// BKN039/// BKN046/// ///CB 15/15 Q1006

METARs EXPIRÉS :
  • 230200Z AUTO VRB05KT 4200 TSRA BR SCT008/// BKN015/// BKN039/// ///CB 15/15 Q1008
  • 230130Z AUTO 07014KT 6000 -TSRA BKN016/// OVC024/// ///CB 19/18 Q1005
  • 230100Z AUTO 08012KT 6000 -TSRA BKN015/// BKN021/// OVC030/// ///CB 18/18 Q1007
  • 230030Z AUTO 09009KT 060V140 4500 TSRA BR OVC016/// ///CB 18/18 Q1008
  • 230000Z AUTO 11013KT 9000 4400 +TSRA BKN021/// OVC039/// ///CB 19/17 Q1008

TAF TAF LFMP
Valide du 23 à 03h jusqu'au 24 à 03h UTC


230200Z 2303/2403 10020G40KT 7000 OVC008
TEMPO 2303/2308 VRB05G30KT 1500 TSRA BKN013CB
BECMG 2306/2308 11016KT RA BKN012 OVC110
BECMG 2312/2315 NSW NSC
ATIS : +33 4 68 63 75 12



MET'MAP, la Météo Aéronautique d'un coup d'oeil ! - Copyright ORBIFLY Décembre 2007 - Disclaimer

ORBIFLY MET'MAP TEAM :

Programmation & Développement : Alexandra Zaïnal
Conception & Développement : Baudouin d'Aumeries
Co-Programmation & Développement : Marc-Olivier Méhu
Soutien technique & logistique : Manuel Goepfert

Contact : metmap@orbifly.com




SOURCES & CREDITS :

   NOAA